Time;durP1;ratioP1;P1;durP2;ratioP2;P2;SDS_P1;SDS_P2;PMS_P1;PMS_P2;Temp;Humidity;BMP_temperature;BMP_pressure;BME280_temperature;BME280_humidity;BME280_pressure;Samples;Min_cycle;Max_cycle;Signal;HPM_P1;HPM_P2
2021/12/09 00:01:03;;;;;;;15.30;12.83;;;;;;;;;;2078329;28;20211;-53
2021/12/09 00:02:04;;;;;;;14.50;12.97;;;;;;;;;;2081942;28;20283;-54
2021/12/09 00:03:07;;;;;;;14.07;12.70;;;;;;;;;;2081778;28;20177;-52
2021/12/09 00:04:11;;;;;;;13.30;11.43;;;;;;;;;;2081861;28;20164;-53
2021/12/09 00:05:13;;;;;;;19.17;13.43;;;;;;;;;;2085831;28;20563;-56
2021/12/09 00:06:15;;;;;;;13.43;12.03;;;;;;;;;;2087821;28;20183;-55
2021/12/09 00:07:16;;;;;;;23.07;13.80;;;;;;;;;;2087459;28;20172;-54
2021/12/09 00:08:16;;;;;;;14.50;13.00;;;;;;;;;;2087143;28;20206;-59
2021/12/09 00:09:18;;;;;;;14.13;12.73;;;;;;;;;;2085954;28;20179;-56
2021/12/09 00:10:19;;;;;;;17.83;12.47;;;;;;;;;;2084321;28;20168;-52
2021/12/09 00:11:19;;;;;;;17.80;13.87;;;;;;;;;;2084322;28;20672;-52
2021/12/09 00:12:22;;;;;;;15.40;12.80;;;;;;;;;;2074893;28;20177;-52
2021/12/09 00:13:23;;;;;;;14.63;12.57;;;;;;;;;;2075266;28;20176;-52
2021/12/09 00:14:25;;;;;;;15.80;12.10;;;;;;;;;;2083864;28;20637;-52
2021/12/09 00:15:25;;;;;;;14.83;12.77;;;;;;;;;;2084559;28;20172;-52
2021/12/09 00:16:25;;;;;;;16.80;12.83;;;;;;;;;;2084199;28;20643;-54
2021/12/09 00:17:26;;;;;;;15.63;12.87;;;;;;;;;;2075123;28;20267;-52
2021/12/09 00:18:26;;;;;;;13.93;12.50;;;;;;;;;;2074548;28;20222;-51
2021/12/09 00:19:26;;;;;;;15.27;13.27;;;;;;;;;;2074577;28;20256;-51
2021/12/09 00:20:27;;;;;;;16.20;13.23;;;;;;;;;;2066199;28;20253;-51
2021/12/09 00:21:27;;;;;;;15.03;12.37;;;;;;;;;;2074444;28;20173;-51
2021/12/09 00:22:27;;;;;;;14.67;12.77;;;;;;;;;;2083295;28;20180;-53
2021/12/09 00:23:28;;;;;;;15.50;12.80;;;;;;;;;;2083296;28;20649;-54
2021/12/09 00:24:28;;;;;;;16.53;12.07;;;;;;;;;;2074281;28;20638;-53
2021/12/09 00:25:28;;;;;;;14.27;12.10;;;;;;;;;;2074480;28;20816;-51
2021/12/09 00:26:29;;;;;;;15.20;12.80;;;;;;;;;;2083853;28;20172;-53
2021/12/09 00:27:29;;;;;;;14.80;12.93;;;;;;;;;;2075071;28;20187;-54
2021/12/09 00:28:30;;;;;;;14.23;12.60;;;;;;;;;;2074982;28;20173;-54
2021/12/09 00:29:30;;;;;;;17.43;13.03;;;;;;;;;;2076291;28;20638;-53
2021/12/09 00:30:32;;;;;;;14.40;12.77;;;;;;;;;;2075526;28;20192;-52
2021/12/09 00:31:32;;;;;;;17.47;13.07;;;;;;;;;;2084337;28;20196;-55
2021/12/09 00:32:32;;;;;;;14.23;12.30;;;;;;;;;;2075834;28;20172;-51
2021/12/09 00:33:40;;;;;;;16.77;13.57;;;;;;;;;;2075780;28;20181;-55
2021/12/09 00:34:44;;;;;;;15.33;12.50;;;;;;;;;;2083415;28;20249;-56
2021/12/09 00:35:54;;;;;;;15.90;11.73;;;;;;;;;;2082975;28;20187;-56
2021/12/09 00:36:58;;;;;;;17.83;14.43;;;;;;;;;;2083302;28;20168;-53
2021/12/09 00:38:08;;;;;;;16.17;13.30;;;;;;;;;;2082518;28;20192;-55
2021/12/09 00:39:10;;;;;;;14.63;12.80;;;;;;;;;;2071588;28;20192;-55
2021/12/09 00:40:10;;;;;;;18.03;13.93;;;;;;;;;;2057402;28;20166;-56
2021/12/09 00:41:13;;;;;;;13.17;11.87;;;;;;;;;;2077043;28;20239;-53
2021/12/09 00:42:13;;;;;;;15.07;13.07;;;;;;;;;;2073554;28;20188;-54
2021/12/09 00:43:13;;;;;;;15.50;13.13;;;;;;;;;;2078835;28;20195;-51
2021/12/09 00:44:14;;;;;;;14.53;12.80;;;;;;;;;;2080512;28;20247;-55
2021/12/09 00:45:14;;;;;;;15.20;12.63;;;;;;;;;;2072933;28;20204;-52
2021/12/09 00:46:14;;;;;;;17.23;13.80;;;;;;;;;;2073629;28;20208;-53
2021/12/09 00:47:15;;;;;;;19.83;13.67;;;;;;;;;;2080799;28;20184;-54
2021/12/09 00:48:15;;;;;;;18.20;14.03;;;;;;;;;;2077002;28;20244;-56
2021/12/09 00:49:16;;;;;;;16.30;13.53;;;;;;;;;;2080672;28;20204;-51
2021/12/09 00:50:17;;;;;;;16.03;13.30;;;;;;;;;;2075338;28;20555;-53
2021/12/09 00:51:17;;;;;;;15.53;13.53;;;;;;;;;;2074620;28;20196;-53
2021/12/09 00:52:17;;;;;;;16.70;13.73;;;;;;;;;;2079182;28;20173;-52
2021/12/09 00:53:17;;;;;;;16.23;13.70;;;;;;;;;;2077846;28;20176;-54
2021/12/09 00:54:18;;;;;;;17.83;13.03;;;;;;;;;;2081036;28;20177;-54
2021/12/09 00:55:20;;;;;;;16.13;14.23;;;;;;;;;;2081684;28;20280;-52
2021/12/09 00:56:21;;;;;;;18.33;14.80;;;;;;;;;;2081863;28;20169;-53
2021/12/09 00:57:21;;;;;;;16.13;13.40;;;;;;;;;;2080314;28;20168;-54
2021/12/09 00:58:21;;;;;;;16.53;13.10;;;;;;;;;;2081758;28;20176;-52
2021/12/09 00:59:22;;;;;;;17.97;14.60;;;;;;;;;;2074306;28;20161;-52
2021/12/09 01:00:22;;;;;;;18.17;14.20;;;;;;;;;;2069074;28;20338;-54
2021/12/09 01:01:23;;;;;;;16.93;15.10;;;;;;;;;;2072394;28;20782;-51
2021/12/09 01:02:23;;;;;;;17.47;14.40;;;;;;;;;;2068637;28;20178;-54
2021/12/09 01:03:24;;;;;;;18.13;14.83;;;;;;;;;;2076279;28;20176;-51
2021/12/09 01:04:24;;;;;;;20.17;14.83;;;;;;;;;;2082215;28;20187;-53
2021/12/09 01:05:24;;;;;;;17.33;14.73;;;;;;;;;;2083183;28;20560;-52
2021/12/09 01:06:25;;;;;;;16.30;14.43;;;;;;;;;;2083240;28;20179;-52
2021/12/09 01:07:25;;;;;;;15.07;13.27;;;;;;;;;;2083147;28;20549;-52
2021/12/09 01:08:25;;;;;;;18.77;14.80;;;;;;;;;;2081945;28;20565;-53
2021/12/09 01:09:26;;;;;;;15.87;14.27;;;;;;;;;;2076220;28;20185;-52
2021/12/09 01:10:28;;;;;;;18.53;14.97;;;;;;;;;;2077984;28;20207;-53
2021/12/09 01:11:28;;;;;;;15.33;13.70;;;;;;;;;;2080067;28;20209;-53
2021/12/09 01:12:28;;;;;;;15.90;13.23;;;;;;;;;;2076785;28;20177;-52
2021/12/09 01:13:29;;;;;;;16.53;14.90;;;;;;;;;;2079241;28;20169;-53
2021/12/09 01:14:29;;;;;;;18.23;14.40;;;;;;;;;;2079331;28;20193;-55
2021/12/09 01:15:29;;;;;;;19.47;14.77;;;;;;;;;;2079438;28;20179;-53
2021/12/09 01:16:30;;;;;;;18.73;14.50;;;;;;;;;;2074111;28;20227;-51
2021/12/09 01:17:30;;;;;;;16.07;14.57;;;;;;;;;;2075948;28;20224;-51
2021/12/09 01:18:30;;;;;;;18.07;14.10;;;;;;;;;;2082000;28;20181;-55
2021/12/09 01:19:30;;;;;;;16.63;14.53;;;;;;;;;;2083214;28;20247;-54
2021/12/09 01:20:31;;;;;;;15.60;14.07;;;;;;;;;;2079690;28;20191;-53
2021/12/09 01:21:31;;;;;;;16.30;14.60;;;;;;;;;;2079060;28;20311;-51
2021/12/09 01:22:39;;;;;;;17.83;14.40;;;;;;;;;;2076219;28;20172;-55
2021/12/09 01:23:41;;;;;;;16.37;13.77;;;;;;;;;;2080292;28;20196;-55
2021/12/09 01:24:41;;;;;;;17.40;14.87;;;;;;;;;;2082322;28;20191;-54
2021/12/09 01:25:43;;;;;;;16.63;14.50;;;;;;;;;;2082311;28;20315;-53
2021/12/09 01:26:45;;;;;;;16.87;14.73;;;;;;;;;;2073767;28;20224;-54
2021/12/09 01:27:47;;;;;;;16.37;14.50;;;;;;;;;;2078210;28;20184;-52
2021/12/09 01:28:53;;;;;;;16.57;14.87;;;;;;;;;;2082157;28;20190;-55
2021/12/09 01:29:55;;;;;;;16.70;14.90;;;;;;;;;;2082186;28;20303;-51
2021/12/09 01:31:01;;;;;;;19.37;15.20;;;;;;;;;;2082315;28;20176;-56
2021/12/09 01:32:05;;;;;;;17.33;15.17;;;;;;;;;;2078638;28;20807;-54
2021/12/09 01:33:06;;;;;;;16.93;14.67;;;;;;;;;;2081620;28;20191;-54
2021/12/09 01:34:08;;;;;;;18.50;14.93;;;;;;;;;;2081941;28;20203;-53
2021/12/09 01:35:09;;;;;;;19.77;14.30;;;;;;;;;;2074280;28;20691;-51
2021/12/09 01:36:09;;;;;;;16.90;15.10;;;;;;;;;;2074632;28;20256;-51
2021/12/09 01:37:10;;;;;;;16.47;14.57;;;;;;;;;;2081626;28;20274;-52
2021/12/09 01:38:14;;;;;;;20.03;15.50;;;;;;;;;;2081829;28;20172;-51
2021/12/09 01:39:14;;;;;;;18.23;15.07;;;;;;;;;;2081693;28;20172;-52
2021/12/09 01:40:15;;;;;;;15.73;14.03;;;;;;;;;;2075078;28;20764;-52
2021/12/09 01:41:16;;;;;;;17.80;14.90;;;;;;;;;;2075767;28;20180;-53
2021/12/09 01:42:17;;;;;;;18.73;15.77;;;;;;;;;;2082435;28;20202;-53
2021/12/09 01:43:17;;;;;;;18.10;15.80;;;;;;;;;;2078729;28;20648;-54
2021/12/09 01:44:17;;;;;;;18.00;15.20;;;;;;;;;;2078597;28;20181;-52
2021/12/09 01:45:18;;;;;;;19.57;15.37;;;;;;;;;;2081173;28;20546;-51
2021/12/09 01:46:20;;;;;;;16.07;13.17;;;;;;;;;;2070732;28;20681;-51
2021/12/09 01:47:20;;;;;;;15.40;13.80;;;;;;;;;;2077531;28;20180;-51
2021/12/09 01:48:21;;;;;;;15.80;13.93;;;;;;;;;;2078014;28;20247;-52
2021/12/09 01:49:21;;;;;;;16.83;15.23;;;;;;;;;;2080990;28;20192;-52
2021/12/09 01:50:22;;;;;;;18.67;15.90;;;;;;;;;;2082808;28;20180;-52
2021/12/09 01:51:22;;;;;;;17.53;14.40;;;;;;;;;;2082466;28;20207;-51
2021/12/09 01:52:22;;;;;;;16.50;14.83;;;;;;;;;;2082109;28;20172;-51
2021/12/09 01:53:22;;;;;;;20.60;15.50;;;;;;;;;;2082528;28;20251;-53
2021/12/09 01:54:24;;;;;;;18.23;14.60;;;;;;;;;;2082026;28;20226;-54
2021/12/09 01:55:26;;;;;;;19.03;15.23;;;;;;;;;;2081978;28;20660;-54
2021/12/09 01:56:27;;;;;;;17.07;15.17;;;;;;;;;;2082522;28;20173;-52
2021/12/09 01:57:28;;;;;;;18.57;15.87;;;;;;;;;;2080052;28;20187;-54
2021/12/09 01:58:28;;;;;;;26.60;14.87;;;;;;;;;;2081779;28;20164;-51
2021/12/09 01:59:28;;;;;;;18.67;14.73;;;;;;;;;;2081447;28;20188;-54
2021/12/09 02:00:30;;;;;;;15.73;13.57;;;;;;;;;;2077121;28;20189;-52
2021/12/09 02:01:31;;;;;;;19.70;14.80;;;;;;;;;;2064901;28;20700;-53
2021/12/09 02:02:31;;;;;;;15.93;14.30;;;;;;;;;;2073841;28;20203;-52
2021/12/09 02:03:32;;;;;;;17.90;14.10;;;;;;;;;;2081837;28;20180;-51
2021/12/09 02:04:32;;;;;;;19.07;14.10;;;;;;;;;;2079670;28;20878;-52
2021/12/09 02:05:33;;;;;;;17.40;15.53;;;;;;;;;;2082233;28;20168;-51
2021/12/09 02:06:35;;;;;;;16.63;14.93;;;;;;;;;;2081585;28;20192;-52
2021/12/09 02:07:35;;;;;;;22.33;15.57;;;;;;;;;;2073284;28;20239;-54
2021/12/09 02:08:35;;;;;;;16.83;14.83;;;;;;;;;;2073102;28;20181;-54
2021/12/09 02:09:35;;;;;;;21.33;15.77;;;;;;;;;;2082233;28;20180;-54
2021/12/09 02:10:36;;;;;;;18.40;15.57;;;;;;;;;;2081828;28;20179;-52
2021/12/09 02:11:36;;;;;;;17.40;14.93;;;;;;;;;;2082305;28;20196;-51
2021/12/09 02:12:36;;;;;;;17.00;15.20;;;;;;;;;;2081642;28;20169;-53
2021/12/09 02:13:37;;;;;;;17.83;14.23;;;;;;;;;;2082725;28;20176;-52
2021/12/09 02:14:42;;;;;;;16.50;14.53;;;;;;;;;;2082729;28;20183;-51
2021/12/09 02:15:43;;;;;;;19.40;14.30;;;;;;;;;;2079800;28;20172;-51
2021/12/09 02:16:43;;;;;;;16.50;14.80;;;;;;;;;;2080084;28;20172;-51
2021/12/09 02:17:43;;;;;;;18.10;15.27;;;;;;;;;;2083065;28;20206;-51
2021/12/09 02:18:44;;;;;;;17.70;15.07;;;;;;;;;;2077620;28;20581;-52
2021/12/09 02:19:45;;;;;;;16.30;14.53;;;;;;;;;;2076146;28;20693;-56
2021/12/09 02:20:46;;;;;;;19.23;15.37;;;;;;;;;;2082471;28;20169;-53
2021/12/09 02:21:47;;;;;;;16.10;14.40;;;;;;;;;;2078530;28;20189;-52
2021/12/09 02:22:48;;;;;;;18.63;15.00;;;;;;;;;;2079638;28;20207;-53
2021/12/09 02:23:51;;;;;;;18.03;15.33;;;;;;;;;;2077627;28;20227;-52
2021/12/09 02:24:51;;;;;;;19.10;15.30;;;;;;;;;;2079021;28;20212;-54
2021/12/09 02:25:52;;;;;;;18.80;15.07;;;;;;;;;;2076849;28;20545;-52
2021/12/09 02:26:52;;;;;;;16.47;14.43;;;;;;;;;;2076189;28;20168;-55
2021/12/09 02:27:52;;;;;;;18.83;14.73;;;;;;;;;;2082170;28;20177;-60
2021/12/09 02:28:53;;;;;;;16.57;14.50;;;;;;;;;;2072989;28;20180;-55
2021/12/09 02:29:54;;;;;;;21.03;15.20;;;;;;;;;;2079980;28;20725;-56
2021/12/09 02:30:55;;;;;;;16.53;14.73;;;;;;;;;;2080569;28;20209;-55
2021/12/09 02:31:57;;;;;;;21.43;15.27;;;;;;;;;;2089576;28;21511;-56
2021/12/09 02:32:57;;;;;;;16.23;14.27;;;;;;;;;;2081908;28;20184;-53
2021/12/09 02:33:58;;;;;;;15.70;14.10;;;;;;;;;;2081867;28;20181;-53
2021/12/09 02:34:58;;;;;;;16.63;14.80;;;;;;;;;;2081126;28;20200;-52
2021/12/09 02:35:58;;;;;;;17.00;14.53;;;;;;;;;;2080810;28;20640;-51
2021/12/09 02:36:59;;;;;;;16.80;14.40;;;;;;;;;;2074281;28;20263;-51
2021/12/09 02:37:59;;;;;;;18.00;14.43;;;;;;;;;;2080870;28;20200;-54
2021/12/09 02:38:59;;;;;;;15.57;13.87;;;;;;;;;;2081499;28;20172;-55
2021/12/09 02:40:00;;;;;;;15.93;13.47;;;;;;;;;;2081604;28;20180;-51
2021/12/09 02:41:02;;;;;;;15.33;13.73;;;;;;;;;;2081461;28;20281;-54
2021/12/09 02:42:03;;;;;;;19.70;14.30;;;;;;;;;;2081076;28;20176;-54
2021/12/09 02:43:05;;;;;;;17.43;13.97;;;;;;;;;;2080190;28;20211;-51
2021/12/09 02:44:07;;;;;;;17.90;13.60;;;;;;;;;;2082097;28;20167;-51
2021/12/09 02:45:08;;;;;;;15.03;13.53;;;;;;;;;;2079593;28;20268;-52
2021/12/09 02:46:09;;;;;;;15.23;13.63;;;;;;;;;;2076142;28;20231;-53
2021/12/09 02:47:09;;;;;;;15.70;13.97;;;;;;;;;;2081467;28;20180;-53
2021/12/09 02:48:09;;;;;;;14.87;13.30;;;;;;;;;;2078543;28;20980;-51
2021/12/09 02:49:11;;;;;;;15.00;13.57;;;;;;;;;;2071855;28;20214;-53
2021/12/09 02:50:11;;;;;;;17.60;14.03;;;;;;;;;;2080387;28;20184;-54
2021/12/09 02:51:12;;;;;;;16.20;14.50;;;;;;;;;;2072579;28;20173;-52
2021/12/09 02:52:12;;;;;;;18.27;14.00;;;;;;;;;;2080990;28;20208;-54
2021/12/09 02:53:12;;;;;;;17.43;13.67;;;;;;;;;;2082178;28;20180;-54
2021/12/09 02:54:15;;;;;;;16.80;13.50;;;;;;;;;;2076335;28;20235;-52
2021/12/09 02:55:15;;;;;;;15.07;13.50;;;;;;;;;;2074455;28;20641;-51
2021/12/09 02:56:15;;;;;;;16.43;14.03;;;;;;;;;;2080465;28;20226;-54
2021/12/09 02:57:16;;;;;;;15.97;13.43;;;;;;;;;;2080024;28;20222;-56
2021/12/09 02:58:16;;;;;;;15.57;13.93;;;;;;;;;;2077541;28;20189;-53
2021/12/09 02:59:16;;;;;;;15.83;13.63;;;;;;;;;;2081398;28;20176;-52
2021/12/09 03:00:17;;;;;;;16.63;13.67;;;;;;;;;;2081122;28;20164;-53
2021/12/09 03:01:25;;;;;;;16.07;12.73;;;;;;;;;;2081291;28;20517;-55
2021/12/09 03:02:26;;;;;;;16.20;12.87;;;;;;;;;;2074628;28;20173;-54
2021/12/09 03:03:27;;;;;;;14.30;12.80;;;;;;;;;;2074056;28;20247;-53
2021/12/09 03:04:37;;;;;;;17.53;12.73;;;;;;;;;;2078866;28;20267;-54
2021/12/09 03:05:39;;;;;;;15.17;12.83;;;;;;;;;;2078188;28;20194;-56
2021/12/09 03:06:41;;;;;;;14.43;12.93;;;;;;;;;;2076919;28;20695;-52
2021/12/09 03:07:42;;;;;;;13.87;12.57;;;;;;;;;;2081166;28;20677;-56
2021/12/09 03:08:43;;;;;;;15.47;12.67;;;;;;;;;;2080938;28;20871;-50
2021/12/09 03:09:51;;;;;;;17.97;13.20;;;;;;;;;;2073124;28;20215;-53
2021/12/09 03:10:52;;;;;;;13.87;12.43;;;;;;;;;;2072474;28;20177;-54
2021/12/09 03:11:55;;;;;;;14.73;12.13;;;;;;;;;;2078991;28;20706;-57
2021/12/09 03:12:56;;;;;;;15.77;12.20;;;;;;;;;;2074578;28;20864;-56
2021/12/09 03:13:57;;;;;;;15.40;12.17;;;;;;;;;;2079712;28;20665;-56
2021/12/09 03:14:58;;;;;;;13.30;11.77;;;;;;;;;;2080977;28;20195;-54
2021/12/09 03:15:59;;;;;;;16.13;12.83;;;;;;;;;;2081666;28;20180;-53
2021/12/09 03:16:59;;;;;;;14.30;12.80;;;;;;;;;;2080721;28;20180;-56
2021/12/09 03:18:00;;;;;;;13.30;11.97;;;;;;;;;;2079416;28;20184;-51
2021/12/09 03:19:05;;;;;;;14.63;12.67;;;;;;;;;;2080886;28;20202;-54
2021/12/09 03:20:09;;;;;;;14.80;12.17;;;;;;;;;;2081099;28;20161;-56
2021/12/09 03:21:12;;;;;;;14.80;12.90;;;;;;;;;;2073848;28;20665;-55
2021/12/09 03:22:13;;;;;;;14.73;12.97;;;;;;;;;;2076101;28;20231;-56
2021/12/09 03:23:13;;;;;;;13.97;12.53;;;;;;;;;;2076081;28;20728;-53
2021/12/09 03:24:16;;;;;;;13.43;12.03;;;;;;;;;;2082215;28;20609;-55
2021/12/09 03:25:17;;;;;;;14.53;13.00;;;;;;;;;;2077975;28;20219;-55
2021/12/09 03:26:20;;;;;;;17.87;13.10;;;;;;;;;;2080455;28;20180;-54
2021/12/09 03:27:21;;;;;;;14.70;12.03;;;;;;;;;;2074511;28;20169;-55
2021/12/09 03:28:21;;;;;;;13.73;12.17;;;;;;;;;;2065661;28;20174;-55
2021/12/09 03:29:22;;;;;;;17.17;12.83;;;;;;;;;;2072019;28;20177;-52
2021/12/09 03:30:24;;;;;;;13.47;12.10;;;;;;;;;;2081055;28;20268;-55
2021/12/09 03:31:24;;;;;;;14.53;12.20;;;;;;;;;;2080218;28;20212;-54
2021/12/09 03:32:25;;;;;;;13.10;11.80;;;;;;;;;;2081418;28;20520;-55
2021/12/09 03:33:25;;;;;;;15.13;12.40;;;;;;;;;;2081357;28;20215;-53
2021/12/09 03:34:28;;;;;;;14.97;13.27;;;;;;;;;;2081810;28;20225;-53
2021/12/09 03:35:29;;;;;;;14.87;12.63;;;;;;;;;;2081535;28;20172;-54
2021/12/09 03:36:29;;;;;;;15.80;12.03;;;;;;;;;;2073002;28;20180;-55
2021/12/09 03:37:29;;;;;;;13.43;12.00;;;;;;;;;;2076369;28;20181;-53
2021/12/09 03:38:30;;;;;;;13.27;12.03;;;;;;;;;;2080767;28;20176;-54
2021/12/09 03:39:33;;;;;;;13.70;12.17;;;;;;;;;;2081079;28;20337;-53
2021/12/09 03:40:33;;;;;;;13.67;12.23;;;;;;;;;;2081873;28;20180;-54
2021/12/09 03:41:33;;;;;;;13.40;11.93;;;;;;;;;;2081481;28;20172;-52
2021/12/09 03:42:34;;;;;;;12.70;11.40;;;;;;;;;;2081547;28;20200;-54
2021/12/09 03:43:35;;;;;;;13.00;11.53;;;;;;;;;;2080718;28;20180;-53
2021/12/09 03:44:36;;;;;;;14.23;12.57;;;;;;;;;;2081112;28;20283;-54
2021/12/09 03:45:36;;;;;;;17.03;13.40;;;;;;;;;;2077268;28;20179;-51
2021/12/09 03:46:36;;;;;;;14.30;12.93;;;;;;;;;;2081550;28;20185;-51
2021/12/09 03:47:37;;;;;;;16.17;12.60;;;;;;;;;;2081553;28;20179;-53
2021/12/09 03:48:37;;;;;;;15.30;12.60;;;;;;;;;;2077306;28;20185;-53
2021/12/09 03:49:38;;;;;;;15.83;12.47;;;;;;;;;;2072877;28;20176;-54
2021/12/09 03:50:39;;;;;;;16.80;12.93;;;;;;;;;;2080444;28;20655;-52
2021/12/09 03:51:39;;;;;;;15.17;12.40;;;;;;;;;;2076963;28;20287;-53
2021/12/09 03:52:40;;;;;;;14.10;12.23;;;;;;;;;;2080887;28;20538;-51
2021/12/09 03:53:40;;;;;;;16.13;12.50;;;;;;;;;;2079160;28;20211;-53
2021/12/09 03:54:41;;;;;;;14.37;12.43;;;;;;;;;;2081425;28;20188;-51
2021/12/09 03:55:41;;;;;;;14.90;11.73;;;;;;;;;;2081483;28;20183;-54
2021/12/09 03:56:42;;;;;;;13.30;11.97;;;;;;;;;;2080654;28;20188;-56
2021/12/09 03:57:44;;;;;;;14.20;11.87;;;;;;;;;;2077798;28;20176;-55
2021/12/09 03:58:44;;;;;;;15.07;12.53;;;;;;;;;;2080921;28;20215;-51
2021/12/09 03:59:44;;;;;;;15.57;11.97;;;;;;;;;;2081045;28;20179;-55
2021/12/09 04:00:45;;;;;;;14.30;12.80;;;;;;;;;;2081379;28;20184;-52
2021/12/09 04:01:46;;;;;;;17.43;13.00;;;;;;;;;;2082412;28;20204;-51
2021/12/09 04:02:46;;;;;;;16.37;12.53;;;;;;;;;;2081814;28;20179;-57
2021/12/09 04:03:47;;;;;;;14.10;12.70;;;;;;;;;;2082038;28;20675;-52
2021/12/09 04:04:47;;;;;;;16.47;12.90;;;;;;;;;;2078652;28;20208;-54
2021/12/09 04:05:48;;;;;;;16.70;12.30;;;;;;;;;;2073821;28;20173;-50
2021/12/09 04:06:48;;;;;;;14.03;11.80;;;;;;;;;;2079051;28;20230;-56
2021/12/09 04:07:48;;;;;;;13.97;12.17;;;;;;;;;;2081784;28;20645;-50
2021/12/09 04:08:49;;;;;;;19.20;12.13;;;;;;;;;;2081852;28;20398;-55
2021/12/09 04:09:49;;;;;;;17.87;12.23;;;;;;;;;;2082336;28;20234;-53
2021/12/09 04:10:49;;;;;;;17.20;11.93;;;;;;;;;;2082330;28;20176;-53
2021/12/09 04:11:50;;;;;;;13.30;11.93;;;;;;;;;;2079053;28;20299;-54
2021/12/09 04:12:51;;;;;;;17.33;12.47;;;;;;;;;;2079044;28;20179;-55
2021/12/09 04:13:52;;;;;;;14.50;12.43;;;;;;;;;;2075078;28;20223;-51
2021/12/09 04:14:52;;;;;;;17.03;12.83;;;;;;;;;;2081542;28;20644;-50
2021/12/09 04:15:53;;;;;;;14.47;11.80;;;;;;;;;;2081785;28;20191;-52
2021/12/09 04:16:53;;;;;;;14.47;12.27;;;;;;;;;;2083617;28;20211;-54
2021/12/09 04:17:53;;;;;;;14.63;12.27;;;;;;;;;;2080620;28;20179;-52
2021/12/09 04:18:54;;;;;;;14.53;11.67;;;;;;;;;;2080593;28;20684;-54
2021/12/09 04:19:55;;;;;;;14.43;11.27;;;;;;;;;;2074407;28;20228;-55
2021/12/09 04:20:56;;;;;;;14.67;12.07;;;;;;;;;;2072818;28;20169;-56
2021/12/09 04:21:56;;;;;;;17.53;11.60;;;;;;;;;;2074608;28;20180;-51
2021/12/09 04:22:57;;;;;;;14.93;12.37;;;;;;;;;;2081167;28;21939;-52
2021/12/09 04:23:57;;;;;;;12.97;11.57;;;;;;;;;;2081488;28;20230;-52
2021/12/09 04:24:58;;;;;;;14.30;12.03;;;;;;;;;;2080964;28;20275;-53
2021/12/09 04:25:58;;;;;;;14.80;11.83;;;;;;;;;;2070446;23;20256;-60
2021/12/09 04:26:58;;;;;;;14.30;11.20;;;;;;;;;;2055529;28;20257;-60
2021/12/09 04:27:59;;;;;;;13.03;11.67;;;;;;;;;;2063256;28;20217;-59
2021/12/09 04:28:59;;;;;;;15.00;12.23;;;;;;;;;;2072357;28;20172;-57
2021/12/09 04:29:59;;;;;;;16.07;11.43;;;;;;;;;;2073268;28;20339;-59
2021/12/09 04:31:00;;;;;;;14.33;12.57;;;;;;;;;;2072197;28;20200;-58
2021/12/09 04:32:00;;;;;;;14.43;12.60;;;;;;;;;;2066080;28;20201;-60
2021/12/09 04:33:00;;;;;;;13.60;12.30;;;;;;;;;;2062587;28;20240;-59
2021/12/09 04:34:01;;;;;;;13.90;11.90;;;;;;;;;;2057088;28;20225;-57
2021/12/09 04:35:01;;;;;;;13.37;12.03;;;;;;;;;;2071594;28;20207;-59
2021/12/09 04:36:02;;;;;;;16.47;12.40;;;;;;;;;;2072128;28;20247;-59
2021/12/09 04:37:02;;;;;;;15.50;12.53;;;;;;;;;;2072698;28;20591;-60
2021/12/09 04:38:02;;;;;;;17.33;12.57;;;;;;;;;;2064302;28;20166;-57
2021/12/09 04:39:04;;;;;;;15.57;12.77;;;;;;;;;;2057270;28;20706;-60
2021/12/09 04:40:08;;;;;;;19.30;13.20;;;;;;;;;;2065491;28;20174;-56
2021/12/09 04:41:09;;;;;;;18.03;13.00;;;;;;;;;;2065938;28;20647;-59
2021/12/09 04:42:09;;;;;;;18.33;13.97;;;;;;;;;;2065596;28;20165;-59
2021/12/09 04:43:09;;;;;;;21.37;13.97;;;;;;;;;;2073392;28;20172;-59
2021/12/09 04:44:09;;;;;;;18.53;13.53;;;;;;;;;;2074653;28;20644;-60
2021/12/09 04:45:10;;;;;;;18.03;13.43;;;;;;;;;;2073900;28;20311;-57
2021/12/09 04:46:10;;;;;;;18.43;12.97;;;;;;;;;;2065529;28;20232;-58
2021/12/09 04:47:10;;;;;;;17.97;12.93;;;;;;;;;;2057894;28;20201;-60
2021/12/09 04:48:11;;;;;;;18.77;13.40;;;;;;;;;;2065121;28;20184;-60
2021/12/09 04:49:11;;;;;;;15.37;13.40;;;;;;;;;;2073524;28;20181;-60
2021/12/09 04:50:12;;;;;;;14.03;12.33;;;;;;;;;;2072394;28;20168;-59
2021/12/09 04:51:12;;;;;;;21.17;13.57;;;;;;;;;;2074483;28;20252;-59
2021/12/09 04:52:13;;;;;;;20.53;13.40;;;;;;;;;;2066019;28;20677;-60
2021/12/09 04:53:13;;;;;;;21.03;13.43;;;;;;;;;;2065434;28;20178;-59
2021/12/09 04:54:14;;;;;;;15.27;13.67;;;;;;;;;;2074031;28;20272;-60
2021/12/09 04:55:14;;;;;;;16.10;12.17;;;;;;;;;;2073153;28;20212;-61
2021/12/09 04:56:14;;;;;;;18.67;12.87;;;;;;;;;;2073961;28;20200;-58
2021/12/09 04:57:15;;;;;;;18.57;12.93;;;;;;;;;;2071036;28;20213;-59
2021/12/09 04:58:15;;;;;;;14.53;12.00;;;;;;;;;;2073569;28;20267;-60
2021/12/09 04:59:16;;;;;;;18.40;12.80;;;;;;;;;;2073462;28;20165;-60
2021/12/09 05:00:18;;;;;;;14.10;12.30;;;;;;;;;;2073616;28;20188;-61
2021/12/09 05:01:19;;;;;;;23.33;12.30;;;;;;;;;;2072234;28;20178;-59
2021/12/09 05:02:32;;;;;;;22.20;13.33;;;;;;;;;;2073871;28;20223;-61
2021/12/09 05:03:33;;;;;;;16.60;13.40;;;;;;;;;;2070033;28;20255;-59
2021/12/09 05:04:33;;;;;;;18.30;12.93;;;;;;;;;;2073734;28;20761;-58
2021/12/09 05:05:37;;;;;;;18.57;12.37;;;;;;;;;;2069214;28;20547;-59
2021/12/09 05:06:37;;;;;;;16.63;13.27;;;;;;;;;;2061463;28;20186;-59
2021/12/09 05:07:37;;;;;;;19.63;13.43;;;;;;;;;;2064672;28;20178;-53
2021/12/09 05:08:44;;;;;;;18.43;13.43;;;;;;;;;;2073365;28;20180;-58
2021/12/09 05:09:50;;;;;;;17.27;12.87;;;;;;;;;;2071439;28;20208;-56
2021/12/09 05:10:58;;;;;;;18.07;13.87;;;;;;;;;;2074171;28;20195;-59
2021/12/09 05:11:58;;;;;;;17.27;13.90;;;;;;;;;;2073608;28;20259;-56
2021/12/09 05:12:58;;;;;;;17.37;12.67;;;;;;;;;;2073490;28;20246;-58
2021/12/09 05:13:59;;;;;;;17.47;13.63;;;;;;;;;;2064918;28;20200;-61
2021/12/09 05:15:00;;;;;;;17.57;13.37;;;;;;;;;;2065399;28;20180;-60
2021/12/09 05:16:00;;;;;;;20.67;14.40;;;;;;;;;;2073299;28;20208;-59
2021/12/09 05:17:01;;;;;;;19.00;12.77;;;;;;;;;;2073424;28;20188;-56
2021/12/09 05:18:01;;;;;;;17.43;13.50;;;;;;;;;;2073525;28;20173;-58
2021/12/09 05:19:01;;;;;;;21.20;13.80;;;;;;;;;;2073600;28;20173;-58
2021/12/09 05:20:03;;;;;;;20.10;13.87;;;;;;;;;;2073514;28;20697;-58
2021/12/09 05:21:03;;;;;;;18.40;14.10;;;;;;;;;;2073406;28;20173;-59
2021/12/09 05:22:04;;;;;;;20.77;14.20;;;;;;;;;;2074008;28;20622;-59
2021/12/09 05:23:04;;;;;;;17.17;14.20;;;;;;;;;;2073756;28;20213;-57
2021/12/09 05:24:05;;;;;;;16.97;13.03;;;;;;;;;;2067203;28;20206;-60
2021/12/09 05:25:05;;;;;;;14.90;13.27;;;;;;;;;;2065770;28;20214;-61
2021/12/09 05:26:06;;;;;;;15.90;13.77;;;;;;;;;;2072830;28;20280;-61
2021/12/09 05:27:07;;;;;;;16.87;13.83;;;;;;;;;;2073915;28;20171;-60
2021/12/09 05:28:10;;;;;;;17.33;13.70;;;;;;;;;;2070705;28;20181;-61
2021/12/09 05:29:10;;;;;;;18.23;13.20;;;;;;;;;;2065740;28;20434;-60
2021/12/09 05:30:12;;;;;;;19.03;14.03;;;;;;;;;;2073354;28;20594;-60
2021/12/09 05:32:31;;;;;;;18.77;13.90;;;;;;;;;;2073513;28;20383;-60
2021/12/09 05:33:32;;;;;;;16.70;13.63;;;;;;;;;;2073934;28;20184;-60
2021/12/09 05:34:32;;;;;;;16.37;14.17;;;;;;;;;;2070454;28;20181;-59
2021/12/09 05:35:33;;;;;;;17.47;13.23;;;;;;;;;;2073721;28;20252;-58
2021/12/09 05:36:34;;;;;;;19.80;13.63;;;;;;;;;;2072642;28;20165;-60
2021/12/09 05:37:34;;;;;;;16.43;13.30;;;;;;;;;;2065712;28;20187;-60
2021/12/09 05:38:35;;;;;;;17.80;14.27;;;;;;;;;;2064809;28;20173;-59
2021/12/09 05:39:36;;;;;;;16.20;13.37;;;;;;;;;;2073421;28;20168;-60
2021/12/09 05:40:37;;;;;;;16.93;13.27;;;;;;;;;;2072040;28;20264;-61
2021/12/09 05:41:37;;;;;;;20.17;13.53;;;;;;;;;;2073922;28;20184;-60
2021/12/09 05:42:38;;;;;;;19.97;14.30;;;;;;;;;;2071239;28;20173;-57
2021/12/09 05:43:38;;;;;;;20.10;14.07;;;;;;;;;;2069352;28;20238;-62
2021/12/09 05:44:39;;;;;;;21.70;14.20;;;;;;;;;;2073315;28;20626;-58
2021/12/09 05:45:41;;;;;;;22.73;14.47;;;;;;;;;;2064861;28;20227;-61
2021/12/09 05:46:43;;;;;;;20.40;14.70;;;;;;;;;;2065328;28;20181;-59
2021/12/09 05:47:43;;;;;;;21.77;14.90;;;;;;;;;;2073013;28;20172;-60
2021/12/09 05:48:43;;;;;;;19.57;14.23;;;;;;;;;;2064385;28;20431;-55
2021/12/09 05:49:45;;;;;;;21.57;15.93;;;;;;;;;;2056403;28;20185;-59
2021/12/09 05:50:45;;;;;;;21.80;15.40;;;;;;;;;;2061989;28;20646;-62
2021/12/09 05:51:46;;;;;;;18.50;15.33;;;;;;;;;;2073534;28;20204;-59
2021/12/09 05:52:46;;;;;;;22.30;15.87;;;;;;;;;;2064547;28;20312;-61
2021/12/09 05:53:46;;;;;;;17.57;14.77;;;;;;;;;;2065470;28;20197;-60
2021/12/09 05:54:46;;;;;;;19.30;15.27;;;;;;;;;;2073791;28;20181;-61
2021/12/09 05:55:47;;;;;;;20.33;15.30;;;;;;;;;;2073964;28;20197;-61
2021/12/09 05:56:48;;;;;;;20.10;15.57;;;;;;;;;;2074234;28;20177;-60